sensor_id;sensor_type;location;lat;lon;timestamp;pressure;altitude;pressure_sealevel;temperature;humidity
13974;BME280;7060;43.770;4.008;2023-02-15T00:00:24;102635.03;;;3.75;69.81
13974;BME280;7060;43.770;4.008;2023-02-15T00:02:54;102635.25;;;3.69;68.85
13974;BME280;7060;43.770;4.008;2023-02-15T00:05:22;102626.66;;;3.64;69.89
13974;BME280;7060;43.770;4.008;2023-02-15T00:07:50;102638.25;;;3.60;69.53
13974;BME280;7060;43.770;4.008;2023-02-15T00:10:19;102633.63;;;3.65;70.13
13974;BME280;7060;43.770;4.008;2023-02-15T00:12:47;102633.47;;;3.70;69.50
13974;BME280;7060;43.770;4.008;2023-02-15T00:15:16;102623.88;;;3.67;70.05
13974;BME280;7060;43.770;4.008;2023-02-15T00:17:45;102617.72;;;3.67;70.22
13974;BME280;7060;43.770;4.008;2023-02-15T00:20:14;102623.88;;;3.67;69.75
13974;BME280;7060;43.770;4.008;2023-02-15T00:22:42;102627.56;;;3.63;70.28
13974;BME280;7060;43.770;4.008;2023-02-15T00:25:11;102624.88;;;3.65;69.87
13974;BME280;7060;43.770;4.008;2023-02-15T00:27:39;102621.28;;;3.66;70.25
13974;BME280;7060;43.770;4.008;2023-02-15T00:30:08;102623.25;;;3.61;70.16
13974;BME280;7060;43.770;4.008;2023-02-15T00:32:37;102625.03;;;3.60;70.20
13974;BME280;7060;43.770;4.008;2023-02-15T00:35:07;102611.75;;;3.62;69.88
13974;BME280;7060;43.770;4.008;2023-02-15T00:37:36;102616.06;;;3.64;70.06
13974;BME280;7060;43.770;4.008;2023-02-15T00:40:05;102620.66;;;3.59;69.82
13974;BME280;7060;43.770;4.008;2023-02-15T00:42:34;102613.69;;;3.57;70.62
13974;BME280;7060;43.770;4.008;2023-02-15T00:45:03;102609.31;;;3.56;70.08
13974;BME280;7060;43.770;4.008;2023-02-15T00:47:32;102604.09;;;3.54;69.66
13974;BME280;7060;43.770;4.008;2023-02-15T00:50:00;102608.63;;;3.51;70.09
13974;BME280;7060;43.770;4.008;2023-02-15T00:52:31;102603.16;;;3.55;70.37
13974;BME280;7060;43.770;4.008;2023-02-15T00:55:02;102609.22;;;3.59;70.36
13974;BME280;7060;43.770;4.008;2023-02-15T00:57:31;102608.66;;;3.49;71.05
13974;BME280;7060;43.770;4.008;2023-02-15T00:59:59;102608.63;;;3.51;71.10
13974;BME280;7060;43.770;4.008;2023-02-15T01:02:27;102607.66;;;3.53;70.71
13974;BME280;7060;43.770;4.008;2023-02-15T01:04:56;102608.63;;;3.51;71.00
13974;BME280;7060;43.770;4.008;2023-02-15T01:07:24;102605.75;;;3.57;70.33
13974;BME280;7060;43.770;4.008;2023-02-15T01:09:54;102606.69;;;3.56;70.54
13974;BME280;7060;43.770;4.008;2023-02-15T01:12:23;102601.50;;;3.53;71.15
13974;BME280;7060;43.770;4.008;2023-02-15T01:14:51;102608.50;;;3.54;71.48
13974;BME280;7060;43.770;4.008;2023-02-15T01:17:19;102608.50;;;3.54;71.12
13974;BME280;7060;43.770;4.008;2023-02-15T01:19:48;102583.34;;;3.42;70.79
13974;BME280;7060;43.770;4.008;2023-02-15T01:22:18;102601.34;;;3.57;70.62
13974;BME280;7060;43.770;4.008;2023-02-15T01:24:48;102597.00;;;3.55;70.83
13974;BME280;7060;43.770;4.008;2023-02-15T01:27:18;102602.19;;;3.58;70.81
13974;BME280;7060;43.770;4.008;2023-02-15T01:29:47;102604.78;;;3.59;71.49
13974;BME280;7060;43.770;4.008;2023-02-15T01:32:15;102598.63;;;3.59;70.92
13974;BME280;7060;43.770;4.008;2023-02-15T01:34:44;102596.03;;;3.57;71.29
13974;BME280;7060;43.770;4.008;2023-02-15T01:37:12;102595.19;;;3.57;70.58
13974;BME280;7060;43.770;4.008;2023-02-15T01:39:41;102587.25;;;3.57;71.21
13974;BME280;7060;43.770;4.008;2023-02-15T01:42:10;102579.53;;;3.51;71.43
13974;BME280;7060;43.770;4.008;2023-02-15T01:44:52;102586.66;;;3.49;71.61
13974;BME280;7060;43.770;4.008;2023-02-15T01:47:23;102581.34;;;3.49;71.51
13974;BME280;7060;43.770;4.008;2023-02-15T01:50:00;102581.34;;;3.49;71.76
13974;BME280;7060;43.770;4.008;2023-02-15T01:52:30;102579.84;;;3.41;72.02
13974;BME280;7060;43.770;4.008;2023-02-15T01:54:59;102582.50;;;3.41;71.09
13974;BME280;7060;43.770;4.008;2023-02-15T01:57:29;102588.47;;;3.47;71.88
13974;BME280;7060;43.770;4.008;2023-02-15T02:00:04;102583.09;;;3.50;71.17
13974;BME280;7060;43.770;4.008;2023-02-15T02:02:42;102558.06;;;3.35;71.14
13974;BME280;7060;43.770;4.008;2023-02-15T02:05:14;102583.03;;;3.51;70.60
13974;BME280;7060;43.770;4.008;2023-02-15T02:07:45;102574.25;;;3.51;71.35
13974;BME280;7060;43.770;4.008;2023-02-15T02:10:17;102567.31;;;3.47;71.58
13974;BME280;7060;43.770;4.008;2023-02-15T02:12:47;102574.34;;;3.48;71.50
13974;BME280;7060;43.770;4.008;2023-02-15T02:15:23;102570.69;;;3.52;71.69
13974;BME280;7060;43.770;4.008;2023-02-15T02:18:03;102568.13;;;3.49;71.29
13974;BME280;7060;43.770;4.008;2023-02-15T02:21:07;102566.41;;;3.48;70.90
13974;BME280;7060;43.770;4.008;2023-02-15T02:23:51;102563.00;;;3.44;71.28
13974;BME280;7060;43.770;4.008;2023-02-15T02:26:49;102556.97;;;3.40;71.19
13974;BME280;7060;43.770;4.008;2023-02-15T02:29:50;102558.81;;;3.38;71.67
13974;BME280;7060;43.770;4.008;2023-02-15T02:32:48;102564.09;;;3.38;71.95
13974;BME280;7060;43.770;4.008;2023-02-15T02:35:23;102558.59;;;3.45;71.54
13974;BME280;7060;43.770;4.008;2023-02-15T02:38:00;102552.31;;;3.47;71.58
13974;BME280;7060;43.770;4.008;2023-02-15T02:40:41;102549.75;;;3.46;71.45
13974;BME280;7060;43.770;4.008;2023-02-15T02:43:18;102545.38;;;3.45;71.88
13974;BME280;7060;43.770;4.008;2023-02-15T02:45:52;102504.78;;;3.22;72.21
13974;BME280;7060;43.770;4.008;2023-02-15T02:48:27;102535.72;;;3.43;72.06
13974;BME280;7060;43.770;4.008;2023-02-15T02:50:57;102539.84;;;3.51;71.74
13974;BME280;7060;43.770;4.008;2023-02-15T02:53:26;102537.00;;;3.57;72.01
13974;BME280;7060;43.770;4.008;2023-02-15T02:55:57;102540.44;;;3.59;71.86
13974;BME280;7060;43.770;4.008;2023-02-15T02:58:31;102532.56;;;3.57;71.94
13974;BME280;7060;43.770;4.008;2023-02-15T03:01:08;102530.72;;;3.59;71.95
13974;BME280;7060;43.770;4.008;2023-02-15T03:03:41;102501.38;;;3.42;72.00
13974;BME280;7060;43.770;4.008;2023-02-15T03:06:13;102537.59;;;3.65;71.81
13974;BME280;7060;43.770;4.008;2023-02-15T03:08:47;102534.94;;;3.65;72.00
13974;BME280;7060;43.770;4.008;2023-02-15T03:11:16;102541.25;;;3.61;72.20
13974;BME280;7060;43.770;4.008;2023-02-15T03:13:46;102544.00;;;3.58;71.89
13974;BME280;7060;43.770;4.008;2023-02-15T03:16:18;102545.75;;;3.59;72.44
13974;BME280;7060;43.770;4.008;2023-02-15T03:18:58;102542.97;;;3.62;72.47
13974;BME280;7060;43.770;4.008;2023-02-15T03:21:33;102549.84;;;3.66;73.15
13974;BME280;7060;43.770;4.008;2023-02-15T03:24:09;102551.31;;;3.74;72.61
13974;BME280;7060;43.770;4.008;2023-02-15T03:26:43;102548.50;;;3.79;72.38
13974;BME280;7060;43.770;4.008;2023-02-15T03:29:15;102540.38;;;3.84;72.33
13974;BME280;7060;43.770;4.008;2023-02-15T03:31:46;102547.56;;;3.80;73.06
13974;BME280;7060;43.770;4.008;2023-02-15T03:34:18;102551.88;;;3.83;72.39
13974;BME280;7060;43.770;4.008;2023-02-15T03:36:50;102547.50;;;3.82;72.32
13974;BME280;7060;43.770;4.008;2023-02-15T03:39:27;102544.69;;;3.86;73.13
13974;BME280;7060;43.770;4.008;2023-02-15T03:42:04;102528.25;;;3.78;72.81
13974;BME280;7060;43.770;4.008;2023-02-15T03:44:44;102549.00;;;3.89;73.42
13974;BME280;7060;43.770;4.008;2023-02-15T03:47:17;102547.13;;;3.92;73.00
13974;BME280;7060;43.770;4.008;2023-02-15T03:49:53;102541.63;;;3.97;73.31
13974;BME280;7060;43.770;4.008;2023-02-15T03:52:24;102539.78;;;3.99;73.58
13974;BME280;7060;43.770;4.008;2023-02-15T03:54:52;102542.44;;;3.99;73.62
13974;BME280;7060;43.770;4.008;2023-02-15T03:57:24;102532.81;;;3.96;73.52
13974;BME280;7060;43.770;4.008;2023-02-15T04:00:13;102551.00;;;4.05;72.80
13974;BME280;7060;43.770;4.008;2023-02-15T04:03:21;102541.22;;;4.07;73.48
13974;BME280;7060;43.770;4.008;2023-02-15T04:05:52;102520.28;;;4.01;73.45
13974;BME280;7060;43.770;4.008;2023-02-15T04:08:21;102540.00;;;4.16;72.96
13974;BME280;7060;43.770;4.008;2023-02-15T04:11:10;102532.91;;;4.17;73.46
13974;BME280;7060;43.770;4.008;2023-02-15T04:13:37;102539.94;;;4.18;72.88
13974;BME280;7060;43.770;4.008;2023-02-15T04:16:07;102538.16;;;4.18;73.06
13974;BME280;7060;43.770;4.008;2023-02-15T04:18:38;102538.16;;;4.18;73.69
13974;BME280;7060;43.770;4.008;2023-02-15T04:21:28;102546.88;;;4.20;73.35
13974;BME280;7060;43.770;4.008;2023-02-15T04:24:14;102538.81;;;4.23;73.26
13974;BME280;7060;43.770;4.008;2023-02-15T04:27:01;102543.00;;;4.29;73.40
13974;BME280;7060;43.770;4.008;2023-02-15T04:29:31;102536.66;;;4.33;73.67
13974;BME280;7060;43.770;4.008;2023-02-15T04:32:01;102539.19;;;4.36;73.39
13974;BME280;7060;43.770;4.008;2023-02-15T04:34:29;102538.28;;;4.37;73.46
13974;BME280;7060;43.770;4.008;2023-02-15T04:36:59;102545.97;;;4.43;72.99
13974;BME280;7060;43.770;4.008;2023-02-15T04:39:28;102540.56;;;4.46;73.26
13974;BME280;7060;43.770;4.008;2023-02-15T04:41:56;102544.72;;;4.52;72.92
13974;BME280;7060;43.770;4.008;2023-02-15T04:44:25;102534.94;;;4.54;73.50
13974;BME280;7060;43.770;4.008;2023-02-15T04:46:53;102535.72;;;4.56;73.71
13974;BME280;7060;43.770;4.008;2023-02-15T04:49:22;102534.00;;;4.55;73.13
13974;BME280;7060;43.770;4.008;2023-02-15T04:51:51;102528.59;;;4.58;73.28
13974;BME280;7060;43.770;4.008;2023-02-15T04:54:21;102517.84;;;4.61;73.71
13974;BME280;7060;43.770;4.008;2023-02-15T04:56:49;102522.78;;;4.70;73.19
13974;BME280;7060;43.770;4.008;2023-02-15T04:59:17;102522.56;;;4.74;73.75
13974;BME280;7060;43.770;4.008;2023-02-15T05:01:46;102536.34;;;4.83;73.81
13974;BME280;7060;43.770;4.008;2023-02-15T05:04:14;102525.53;;;4.89;73.77
13974;BME280;7060;43.770;4.008;2023-02-15T05:06:43;102523.56;;;4.94;72.96
13974;BME280;7060;43.770;4.008;2023-02-15T05:09:12;102524.34;;;4.96;72.69
13974;BME280;7060;43.770;4.008;2023-02-15T05:11:42;102518.13;;;4.97;72.93
13974;BME280;7060;43.770;4.008;2023-02-15T05:14:10;102528.06;;;4.92;72.91
13974;BME280;7060;43.770;4.008;2023-02-15T05:16:39;102520.91;;;4.94;72.99
13974;BME280;7060;43.770;4.008;2023-02-15T05:19:07;102523.44;;;4.97;73.17
13974;BME280;7060;43.770;4.008;2023-02-15T05:21:36;102521.78;;;4.94;72.75
13974;BME280;7060;43.770;4.008;2023-02-15T05:24:04;102519.78;;;4.99;72.89
13974;BME280;7060;43.770;4.008;2023-02-15T05:26:55;102518.00;;;5.00;72.79
13974;BME280;7060;43.770;4.008;2023-02-15T05:29:41;102533.09;;;4.98;72.88
13974;BME280;7060;43.770;4.008;2023-02-15T05:32:12;102526.16;;;4.95;72.75
13974;BME280;7060;43.770;4.008;2023-02-15T05:34:41;102521.19;;;4.86;73.38
13974;BME280;7060;43.770;4.008;2023-02-15T05:37:09;102525.63;;;4.86;73.17
13974;BME280;7060;43.770;4.008;2023-02-15T05:39:38;102515.81;;;4.88;73.87
13974;BME280;7060;43.770;4.008;2023-02-15T05:42:08;102528.06;;;4.92;73.51
13974;BME280;7060;43.770;4.008;2023-02-15T05:44:36;102527.06;;;4.94;73.45
13974;BME280;7060;43.770;4.008;2023-02-15T05:47:04;102526.88;;;4.99;73.44
13974;BME280;7060;43.770;4.008;2023-02-15T05:49:34;102524.22;;;4.99;73.22
13974;BME280;7060;43.770;4.008;2023-02-15T05:52:03;102520.66;;;5.00;73.32
13974;BME280;7060;43.770;4.008;2023-02-15T05:54:31;102519.56;;;5.04;73.28
13974;BME280;7060;43.770;4.008;2023-02-15T05:57:00;102522.88;;;5.09;72.90
13974;BME280;7060;43.770;4.008;2023-02-15T05:59:30;102527.91;;;5.15;73.25
13974;BME280;7060;43.770;4.008;2023-02-15T06:01:59;102520.63;;;5.20;73.29
13974;BME280;7060;43.770;4.008;2023-02-15T06:04:27;102523.22;;;5.22;72.87
13974;BME280;7060;43.770;4.008;2023-02-15T06:06:56;102530.97;;;5.26;73.15
13974;BME280;7060;43.770;4.008;2023-02-15T06:09:25;102524.75;;;5.27;72.99
13974;BME280;7060;43.770;4.008;2023-02-15T06:11:54;102530.03;;;5.27;73.45
13974;BME280;7060;43.770;4.008;2023-02-15T06:14:22;102533.63;;;5.26;72.64
13974;BME280;7060;43.770;4.008;2023-02-15T06:16:52;102531.66;;;5.30;72.72
13974;BME280;7060;43.770;4.008;2023-02-15T06:19:21;102535.19;;;5.30;72.99
13974;BME280;7060;43.770;4.008;2023-02-15T06:21:49;102532.53;;;5.30;72.76
13974;BME280;7060;43.770;4.008;2023-02-15T06:24:18;102528.44;;;5.23;73.08
13974;BME280;7060;43.770;4.008;2023-02-15T06:26:46;102532.09;;;5.21;73.14
13974;BME280;7060;43.770;4.008;2023-02-15T06:29:15;102540.78;;;5.24;73.20
13974;BME280;7060;43.770;4.008;2023-02-15T06:31:43;102538.94;;;5.26;73.23
13974;BME280;7060;43.770;4.008;2023-02-15T06:34:13;102546.09;;;5.24;72.71
13974;BME280;7060;43.770;4.008;2023-02-15T06:36:42;102538.94;;;5.26;72.99
13974;BME280;7060;43.770;4.008;2023-02-15T06:39:10;102543.13;;;5.30;72.67
13974;BME280;7060;43.770;4.008;2023-02-15T06:41:38;102545.66;;;5.33;72.78
13974;BME280;7060;43.770;4.008;2023-02-15T06:44:07;102549.09;;;5.35;72.40
13974;BME280;7060;43.770;4.008;2023-02-15T06:46:36;102550.84;;;5.36;72.22
13974;BME280;7060;43.770;4.008;2023-02-15T06:49:04;102546.53;;;5.34;72.56
13974;BME280;7060;43.770;4.008;2023-02-15T06:51:34;102556.81;;;5.41;72.31
13974;BME280;7060;43.770;4.008;2023-02-15T06:54:02;102560.38;;;5.40;72.32
13974;BME280;7060;43.770;4.008;2023-02-15T06:56:31;102557.59;;;5.43;72.04
13974;BME280;7060;43.770;4.008;2023-02-15T06:59:00;102561.19;;;5.42;71.99
13974;BME280;7060;43.770;4.008;2023-02-15T07:01:28;102563.38;;;5.33;71.85
13974;BME280;7060;43.770;4.008;2023-02-15T07:03:57;102561.56;;;5.33;72.28
13974;BME280;7060;43.770;4.008;2023-02-15T07:06:25;102566.75;;;5.36;72.11
13974;BME280;7060;43.770;4.008;2023-02-15T07:08:55;102571.97;;;5.38;71.92
13974;BME280;7060;43.770;4.008;2023-02-15T07:11:23;102573.66;;;5.40;72.29
13974;BME280;7060;43.770;4.008;2023-02-15T07:14:24;102578.81;;;5.43;72.19
13974;BME280;7060;43.770;4.008;2023-02-15T07:16:54;102582.25;;;5.45;72.26
13974;BME280;7060;43.770;4.008;2023-02-15T07:19:23;102585.84;;;5.44;72.41
13974;BME280;7060;43.770;4.008;2023-02-15T07:21:51;102578.69;;;5.47;72.25
13974;BME280;7060;43.770;4.008;2023-02-15T07:24:21;102579.34;;;5.52;72.13
13974;BME280;7060;43.770;4.008;2023-02-15T07:26:50;102583.72;;;5.53;72.37
13974;BME280;7060;43.770;4.008;2023-02-15T07:29:18;102579.97;;;5.57;72.38
13974;BME280;7060;43.770;4.008;2023-02-15T07:31:46;102580.78;;;5.59;72.54
13974;BME280;7060;43.770;4.008;2023-02-15T07:34:15;102590.06;;;5.69;71.95
13974;BME280;7060;43.770;4.008;2023-02-15T07:36:45;102578.50;;;5.70;72.35
13974;BME280;7060;43.770;4.008;2023-02-15T07:39:14;102586.19;;;5.76;72.09
13974;BME280;7060;43.770;4.008;2023-02-15T07:41:43;102583.47;;;5.77;72.54
13974;BME280;7060;43.770;4.008;2023-02-15T07:44:13;102583.28;;;5.82;72.71
13974;BME280;7060;43.770;4.008;2023-02-15T07:46:42;102583.09;;;5.85;72.37
13974;BME280;7060;43.770;4.008;2023-02-15T07:49:11;102581.19;;;5.89;72.56
13974;BME280;7060;43.770;4.008;2023-02-15T07:51:40;102582.69;;;5.94;72.01
13974;BME280;7060;43.770;4.008;2023-02-15T07:54:08;102578.81;;;6.01;72.21
13974;BME280;7060;43.770;4.008;2023-02-15T07:56:36;102580.47;;;6.04;72.46
13974;BME280;7060;43.770;4.008;2023-02-15T07:59:06;102580.03;;;6.13;72.28
13974;BME280;7060;43.770;4.008;2023-02-15T08:01:37;102585.06;;;6.19;71.94
13974;BME280;7060;43.770;4.008;2023-02-15T08:04:07;102583.91;;;6.25;72.08
13974;BME280;7060;43.770;4.008;2023-02-15T08:06:37;102580.19;;;6.29;72.57
13974;BME280;7060;43.770;4.008;2023-02-15T08:09:11;102579.75;;;6.38;72.42
13974;BME280;7060;43.770;4.008;2023-02-15T08:11:43;102586.47;;;6.45;72.02
13974;BME280;7060;43.770;4.008;2023-02-15T08:14:15;102560.38;;;6.36;71.52
13974;BME280;7060;43.770;4.008;2023-02-15T08:16:49;102585.03;;;6.57;71.73
13974;BME280;7060;43.770;4.008;2023-02-15T08:19:20;102586.38;;;6.65;71.58
13974;BME280;7060;43.770;4.008;2023-02-15T08:21:52;102580.97;;;6.67;72.04
13974;BME280;7060;43.770;4.008;2023-02-15T08:24:28;102588.56;;;6.74;71.33
13974;BME280;7060;43.770;4.008;2023-02-15T08:26:57;102590.00;;;6.81;71.81
13974;BME280;7060;43.770;4.008;2023-02-15T08:29:28;102554.16;;;6.71;71.48
13974;BME280;7060;43.770;4.008;2023-02-15T08:31:59;102589.19;;;6.97;70.55
13974;BME280;7060;43.770;4.008;2023-02-15T08:34:30;102587.31;;;6.99;70.78
13974;BME280;7060;43.770;4.008;2023-02-15T08:37:00;102587.97;;;7.04;70.36
13974;BME280;7060;43.770;4.008;2023-02-15T08:39:28;102596.41;;;7.12;70.75
13974;BME280;7060;43.770;4.008;2023-02-15T08:41:57;102596.03;;;7.20;70.70
13974;BME280;7060;43.770;4.008;2023-02-15T08:44:27;102599.94;;;7.30;70.57
13974;BME280;7060;43.770;4.008;2023-02-15T08:46:56;102594.41;;;7.34;70.77
13974;BME280;7060;43.770;4.008;2023-02-15T08:49:29;102602.00;;;7.42;70.24
13974;BME280;7060;43.770;4.008;2023-02-15T08:51:59;102595.38;;;7.49;69.73
13974;BME280;7060;43.770;4.008;2023-02-15T08:54:27;102592.56;;;7.52;70.25
13974;BME280;7060;43.770;4.008;2023-02-15T08:56:56;102587.16;;;7.54;70.03
13974;BME280;7060;43.770;4.008;2023-02-15T08:59:27;102593.13;;;7.59;68.74
13974;BME280;7060;43.770;4.008;2023-02-15T09:01:55;102594.44;;;7.67;69.03
13974;BME280;7060;43.770;4.008;2023-02-15T09:04:25;102595.72;;;7.76;68.77
13974;BME280;7060;43.770;4.008;2023-02-15T09:06:53;102591.88;;;7.81;68.17
13974;BME280;7060;43.770;4.008;2023-02-15T09:09:22;102590.06;;;7.82;67.18
13974;BME280;7060;43.770;4.008;2023-02-15T09:11:51;102592.50;;;7.87;67.46
13974;BME280;7060;43.770;4.008;2023-02-15T09:14:27;102598.53;;;7.90;67.16
13974;BME280;7060;43.770;4.008;2023-02-15T09:16:55;102602.56;;;7.97;67.26
13974;BME280;7060;43.770;4.008;2023-02-15T09:19:24;102569.31;;;7.89;67.50
13974;BME280;7060;43.770;4.008;2023-02-15T09:21:52;102592.88;;;8.12;65.94
13974;BME280;7060;43.770;4.008;2023-02-15T09:24:21;102602.16;;;8.21;65.86
13974;BME280;7060;43.770;4.008;2023-02-15T09:26:49;102600.81;;;8.29;65.49
13974;BME280;7060;43.770;4.008;2023-02-15T09:29:19;102604.13;;;8.33;66.18
13974;BME280;7060;43.770;4.008;2023-02-15T09:31:49;102597.69;;;8.37;65.57
13974;BME280;7060;43.770;4.008;2023-02-15T09:34:20;102594.78;;;8.41;66.33
13974;BME280;7060;43.770;4.008;2023-02-15T09:36:50;102605.19;;;8.46;65.80
13974;BME280;7060;43.770;4.008;2023-02-15T09:39:21;102606.97;;;8.45;65.37
13974;BME280;7060;43.770;4.008;2023-02-15T09:42:05;102614.13;;;8.45;65.95
13974;BME280;7060;43.770;4.008;2023-02-15T09:44:48;102615.94;;;8.44;64.82
13974;BME280;7060;43.770;4.008;2023-02-15T09:47:40;102616.69;;;8.46;65.70
13974;BME280;7060;43.770;4.008;2023-02-15T09:50:21;102619.09;;;8.51;65.90
13974;BME280;7060;43.770;4.008;2023-02-15T09:53:02;102622.25;;;8.58;65.52
13974;BME280;7060;43.770;4.008;2023-02-15T09:55:48;102617.63;;;8.61;64.72
13974;BME280;7060;43.770;4.008;2023-02-15T09:58:25;102621.22;;;8.60;64.42
13974;BME280;7060;43.770;4.008;2023-02-15T10:01:01;102619.00;;;8.68;65.28
13974;BME280;7060;43.770;4.008;2023-02-15T10:03:41;102621.31;;;8.74;64.34
13974;BME280;7060;43.770;4.008;2023-02-15T10:06:32;102618.31;;;8.80;64.92
13974;BME280;7060;43.770;4.008;2023-02-15T10:09:24;102623.25;;;8.87;63.89
13974;BME280;7060;43.770;4.008;2023-02-15T10:12:10;102624.91;;;8.89;63.49
13974;BME280;7060;43.770;4.008;2023-02-15T10:14:58;102617.84;;;8.88;63.34
13974;BME280;7060;43.770;4.008;2023-02-15T10:17:47;102615.69;;;8.95;63.58
13974;BME280;7060;43.770;4.008;2023-02-15T10:20:28;102616.19;;;9.01;63.17
13974;BME280;7060;43.770;4.008;2023-02-15T10:23:09;102619.06;;;9.12;63.43
13974;BME280;7060;43.770;4.008;2023-02-15T10:25:46;102613.47;;;9.17;63.85
13974;BME280;7060;43.770;4.008;2023-02-15T10:28:18;102575.56;;;9.12;63.53
13974;BME280;7060;43.770;4.008;2023-02-15T10:30:48;102613.97;;;9.39;63.24
13974;BME280;7060;43.770;4.008;2023-02-15T10:33:30;102613.28;;;9.50;62.47
13974;BME280;7060;43.770;4.008;2023-02-15T10:36:11;102616.72;;;9.52;62.45
13974;BME280;7060;43.770;4.008;2023-02-15T10:38:50;102612.75;;;9.59;62.34
13974;BME280;7060;43.770;4.008;2023-02-15T10:41:29;102608.75;;;9.66;62.42
13974;BME280;7060;43.770;4.008;2023-02-15T10:44:13;102617.13;;;9.74;61.99
13974;BME280;7060;43.770;4.008;2023-02-15T10:47:07;102617.63;;;9.81;61.64
13974;BME280;7060;43.770;4.008;2023-02-15T10:49:51;102618.28;;;9.84;61.56
13974;BME280;7060;43.770;4.008;2023-02-15T10:52:36;102619.72;;;9.90;61.76
13974;BME280;7060;43.770;4.008;2023-02-15T10:55:12;102612.06;;;9.98;61.70
13974;BME280;7060;43.770;4.008;2023-02-15T10:57:50;102616.66;;;10.10;61.68
13974;BME280;7060;43.770;4.008;2023-02-15T11:00:24;102617.03;;;10.18;61.54
13974;BME280;7060;43.770;4.008;2023-02-15T11:03:08;102612.13;;;10.25;61.01
13974;BME280;7060;43.770;4.008;2023-02-15T11:05:45;102618.16;;;10.29;60.38
13974;BME280;7060;43.770;4.008;2023-02-15T11:08:18;102609.84;;;10.33;60.69
13974;BME280;7060;43.770;4.008;2023-02-15T11:10:49;102605.34;;;10.34;60.38
13974;BME280;7060;43.770;4.008;2023-02-15T11:13:22;102608.59;;;10.39;59.76
13974;BME280;7060;43.770;4.008;2023-02-15T11:15:54;102603.81;;;10.44;59.52
13974;BME280;7060;43.770;4.008;2023-02-15T11:18:27;102561.16;;;10.28;59.56
13974;BME280;7060;43.770;4.008;2023-02-15T11:21:02;102600.97;;;10.60;59.53
13974;BME280;7060;43.770;4.008;2023-02-15T11:23:35;102599.72;;;10.65;59.62
13974;BME280;7060;43.770;4.008;2023-02-15T11:26:12;102599.03;;;10.76;60.14
13974;BME280;7060;43.770;4.008;2023-02-15T11:28:47;102592.50;;;10.80;59.27
13974;BME280;7060;43.770;4.008;2023-02-15T11:31:18;102592.00;;;10.88;59.15
13974;BME280;7060;43.770;4.008;2023-02-15T11:33:51;102593.63;;;10.90;58.53
13974;BME280;7060;43.770;4.008;2023-02-15T11:36:24;102593.31;;;10.95;58.72
13974;BME280;7060;43.770;4.008;2023-02-15T11:38:58;102560.41;;;10.80;58.31
13974;BME280;7060;43.770;4.008;2023-02-15T11:41:32;102585.84;;;11.00;57.73
13974;BME280;7060;43.770;4.008;2023-02-15T11:44:06;102584.66;;;11.04;58.04
13974;BME280;7060;43.770;4.008;2023-02-15T11:46:36;102576.22;;;11.10;57.33
13974;BME280;7060;43.770;4.008;2023-02-15T11:49:12;102565.97;;;11.16;57.34
13974;BME280;7060;43.770;4.008;2023-02-15T11:51:49;102568.13;;;11.24;57.59
13974;BME280;7060;43.770;4.008;2023-02-15T11:54:25;102568.31;;;11.34;57.26
13974;BME280;7060;43.770;4.008;2023-02-15T11:56:56;102560.31;;;11.46;56.49
13974;BME280;7060;43.770;4.008;2023-02-15T11:59:32;102566.94;;;11.53;56.50
13974;BME280;7060;43.770;4.008;2023-02-15T12:02:15;102560.06;;;11.62;56.42
13974;BME280;7060;43.770;4.008;2023-02-15T12:04:48;102532.13;;;11.53;56.42
13974;BME280;7060;43.770;4.008;2023-02-15T12:07:21;102547.63;;;11.74;56.33
13974;BME280;7060;43.770;4.008;2023-02-15T12:10:00;102543.34;;;11.84;55.86
13974;BME280;7060;43.770;4.008;2023-02-15T12:12:32;102550.81;;;11.92;55.93
13974;BME280;7060;43.770;4.008;2023-02-15T12:15:03;102540.72;;;11.95;55.70
13974;BME280;7060;43.770;4.008;2023-02-15T12:17:34;102520.09;;;11.84;54.99
13974;BME280;7060;43.770;4.008;2023-02-15T12:20:18;102538.47;;;12.02;55.55
13974;BME280;7060;43.770;4.008;2023-02-15T12:22:51;102488.69;;;11.74;55.77
13974;BME280;7060;43.770;4.008;2023-02-15T12:25:23;102539.00;;;12.07;54.79
13974;BME280;7060;43.770;4.008;2023-02-15T12:27:54;102538.88;;;12.08;54.75
13974;BME280;7060;43.770;4.008;2023-02-15T12:30:27;102540.06;;;12.04;54.41
13974;BME280;7060;43.770;4.008;2023-02-15T12:33:04;102521.31;;;11.92;54.16
13974;BME280;7060;43.770;4.008;2023-02-15T12:35:35;102528.19;;;11.96;54.62
13974;BME280;7060;43.770;4.008;2023-02-15T12:38:21;102526.38;;;11.96;54.84
13974;BME280;7060;43.770;4.008;2023-02-15T12:40:59;102527.09;;;11.98;54.78
13974;BME280;7060;43.770;4.008;2023-02-15T12:43:31;102525.19;;;12.00;55.08
13974;BME280;7060;43.770;4.008;2023-02-15T12:46:20;102522.91;;;12.07;54.92
13974;BME280;7060;43.770;4.008;2023-02-15T12:49:05;102502.25;;;11.96;54.82
13974;BME280;7060;43.770;4.008;2023-02-15T12:51:49;102493.03;;;11.87;54.50
13974;BME280;7060;43.770;4.008;2023-02-15T12:54:36;102507.69;;;12.07;54.36
13974;BME280;7060;43.770;4.008;2023-02-15T12:57:21;102499.53;;;12.09;54.27
13974;BME280;7060;43.770;4.008;2023-02-15T12:59:52;102507.44;;;12.23;54.60
13974;BME280;7060;43.770;4.008;2023-02-15T13:02:26;102482.88;;;12.16;53.92
13974;BME280;7060;43.770;4.008;2023-02-15T13:04:56;102493.97;;;12.36;53.83
13974;BME280;7060;43.770;4.008;2023-02-15T13:07:30;102489.63;;;12.46;53.91
13974;BME280;7060;43.770;4.008;2023-02-15T13:09:59;102490.59;;;12.45;53.82
13974;BME280;7060;43.770;4.008;2023-02-15T13:12:30;102489.38;;;12.49;53.88
13974;BME280;7060;43.770;4.008;2023-02-15T13:15:00;102484.03;;;12.49;52.87
13974;BME280;7060;43.770;4.008;2023-02-15T13:17:31;102483.06;;;12.50;52.61
13974;BME280;7060;43.770;4.008;2023-02-15T13:20:04;102468.91;;;12.48;52.60
13974;BME280;7060;43.770;4.008;2023-02-15T13:22:39;102470.16;;;12.55;53.07
13974;BME280;7060;43.770;4.008;2023-02-15T13:25:13;102447.03;;;12.41;52.56
13974;BME280;7060;43.770;4.008;2023-02-15T13:27:46;102437.88;;;12.33;52.93
13974;BME280;7060;43.770;4.008;2023-02-15T13:30:27;102456.78;;;12.42;52.66
13974;BME280;7060;43.770;4.008;2023-02-15T13:33:02;102457.75;;;12.41;53.33
13974;BME280;7060;43.770;4.008;2023-02-15T13:35:39;102451.31;;;12.44;53.02
13974;BME280;7060;43.770;4.008;2023-02-15T13:38:22;102444.25;;;12.43;53.11
13974;BME280;7060;43.770;4.008;2023-02-15T13:41:00;102445.31;;;12.40;53.25